sensor_id;sensor_type;location;lat;lon;timestamp;P1;durP1;ratioP1;P2;durP2;ratioP2
69126;SDS011;56688;50.234;19.292;2022-08-25T00:01:41;7.70;;;2.80;;
69126;SDS011;56688;50.234;19.292;2022-08-25T00:04:13;10.00;;;2.80;;
69126;SDS011;56688;50.234;19.292;2022-08-25T00:06:44;11.20;;;4.10;;
69126;SDS011;56688;50.234;19.292;2022-08-25T00:09:13;9.20;;;3.60;;
69126;SDS011;56688;50.234;19.292;2022-08-25T00:11:44;14.60;;;4.00;;
69126;SDS011;56688;50.234;19.292;2022-08-25T00:14:17;15.00;;;3.60;;
69126;SDS011;56688;50.234;19.292;2022-08-25T00:16:47;10.90;;;3.50;;
69126;SDS011;56688;50.234;19.292;2022-08-25T00:19:16;13.20;;;3.60;;
69126;SDS011;56688;50.234;19.292;2022-08-25T00:21:46;8.40;;;3.70;;
69126;SDS011;56688;50.234;19.292;2022-08-25T00:24:14;11.40;;;3.90;;
69126;SDS011;56688;50.234;19.292;2022-08-25T00:26:46;12.70;;;4.10;;
69126;SDS011;56688;50.234;19.292;2022-08-25T00:29:16;11.60;;;3.90;;
69126;SDS011;56688;50.234;19.292;2022-08-25T00:31:44;14.50;;;3.70;;
69126;SDS011;56688;50.234;19.292;2022-08-25T00:34:15;8.50;;;3.70;;
69126;SDS011;56688;50.234;19.292;2022-08-25T00:36:44;11.30;;;4.00;;
69126;SDS011;56688;50.234;19.292;2022-08-25T00:39:12;7.40;;;3.50;;
69126;SDS011;56688;50.234;19.292;2022-08-25T00:41:40;10.80;;;3.50;;
69126;SDS011;56688;50.234;19.292;2022-08-25T00:44:10;13.10;;;3.60;;
69126;SDS011;56688;50.234;19.292;2022-08-25T00:46:40;10.60;;;3.70;;
69126;SDS011;56688;50.234;19.292;2022-08-25T00:49:12;11.10;;;3.90;;
69126;SDS011;56688;50.234;19.292;2022-08-25T00:54:28;10.30;;;3.50;;
69126;SDS011;56688;50.234;19.292;2022-08-25T00:56:59;14.20;;;3.60;;
69126;SDS011;56688;50.234;19.292;2022-08-25T00:59:28;10.40;;;3.70;;
69126;SDS011;56688;50.234;19.292;2022-08-25T01:01:55;8.80;;;3.40;;
69126;SDS011;56688;50.234;19.292;2022-08-25T01:04:24;6.40;;;3.20;;
69126;SDS011;56688;50.234;19.292;2022-08-25T01:06:51;14.70;;;3.90;;
69126;SDS011;56688;50.234;19.292;2022-08-25T01:09:19;11.40;;;3.60;;
69126;SDS011;56688;50.234;19.292;2022-08-25T01:11:46;9.20;;;3.90;;
69126;SDS011;56688;50.234;19.292;2022-08-25T01:14:15;7.20;;;3.50;;
69126;SDS011;56688;50.234;19.292;2022-08-25T01:16:44;9.70;;;4.00;;
69126;SDS011;56688;50.234;19.292;2022-08-25T01:19:16;9.80;;;3.40;;
69126;SDS011;56688;50.234;19.292;2022-08-25T01:21:45;16.20;;;3.90;;
69126;SDS011;56688;50.234;19.292;2022-08-25T01:24:20;19.20;;;3.70;;
69126;SDS011;56688;50.234;19.292;2022-08-25T01:26:59;10.70;;;3.90;;
69126;SDS011;56688;50.234;19.292;2022-08-25T01:29:27;10.00;;;4.20;;
69126;SDS011;56688;50.234;19.292;2022-08-25T01:31:58;10.70;;;4.20;;
69126;SDS011;56688;50.234;19.292;2022-08-25T01:34:28;10.80;;;3.90;;
69126;SDS011;56688;50.234;19.292;2022-08-25T01:36:57;11.70;;;4.50;;
69126;SDS011;56688;50.234;19.292;2022-08-25T01:39:27;8.90;;;3.80;;
69126;SDS011;56688;50.234;19.292;2022-08-25T01:44:36;9.90;;;4.40;;
69126;SDS011;56688;50.234;19.292;2022-08-25T01:47:05;12.70;;;4.00;;
69126;SDS011;56688;50.234;19.292;2022-08-25T01:49:33;13.60;;;4.70;;
69126;SDS011;56688;50.234;19.292;2022-08-25T01:54:33;11.70;;;4.40;;
69126;SDS011;56688;50.234;19.292;2022-08-25T01:57:00;11.50;;;4.30;;
69126;SDS011;56688;50.234;19.292;2022-08-25T01:59:27;10.40;;;4.20;;
69126;SDS011;56688;50.234;19.292;2022-08-25T02:01:54;10.20;;;3.70;;
69126;SDS011;56688;50.234;19.292;2022-08-25T02:04:26;10.90;;;4.30;;
69126;SDS011;56688;50.234;19.292;2022-08-25T02:06:58;12.50;;;4.30;;
69126;SDS011;56688;50.234;19.292;2022-08-25T02:09:27;12.20;;;4.20;;
69126;SDS011;56688;50.234;19.292;2022-08-25T02:11:54;7.20;;;4.30;;
69126;SDS011;56688;50.234;19.292;2022-08-25T02:14:22;10.80;;;4.50;;
69126;SDS011;56688;50.234;19.292;2022-08-25T02:16:50;12.30;;;4.50;;
69126;SDS011;56688;50.234;19.292;2022-08-25T02:19:20;12.30;;;4.80;;
69126;SDS011;56688;50.234;19.292;2022-08-25T02:21:48;10.90;;;4.80;;
69126;SDS011;56688;50.234;19.292;2022-08-25T02:24:16;7.90;;;3.90;;
69126;SDS011;56688;50.234;19.292;2022-08-25T02:26:43;11.00;;;4.00;;
69126;SDS011;56688;50.234;19.292;2022-08-25T02:29:10;10.00;;;4.10;;
69126;SDS011;56688;50.234;19.292;2022-08-25T02:31:37;12.70;;;4.50;;
69126;SDS011;56688;50.234;19.292;2022-08-25T02:34:05;14.00;;;4.60;;
69126;SDS011;56688;50.234;19.292;2022-08-25T02:36:33;9.10;;;4.70;;
69126;SDS011;56688;50.234;19.292;2022-08-25T02:39:00;14.60;;;5.40;;
69126;SDS011;56688;50.234;19.292;2022-08-25T02:41:29;11.40;;;5.00;;
69126;SDS011;56688;50.234;19.292;2022-08-25T02:43:57;11.60;;;5.30;;
69126;SDS011;56688;50.234;19.292;2022-08-25T02:46:25;9.70;;;4.80;;
69126;SDS011;56688;50.234;19.292;2022-08-25T02:48:52;12.00;;;4.40;;
69126;SDS011;56688;50.234;19.292;2022-08-25T02:51:20;10.50;;;4.50;;
69126;SDS011;56688;50.234;19.292;2022-08-25T02:53:48;12.10;;;4.60;;
69126;SDS011;56688;50.234;19.292;2022-08-25T02:56:16;15.20;;;5.30;;
69126;SDS011;56688;50.234;19.292;2022-08-25T02:58:44;9.60;;;4.70;;
69126;SDS011;56688;50.234;19.292;2022-08-25T03:01:12;15.50;;;5.30;;
69126;SDS011;56688;50.234;19.292;2022-08-25T03:03:41;10.60;;;4.80;;
69126;SDS011;56688;50.234;19.292;2022-08-25T03:06:11;10.90;;;4.90;;
69126;SDS011;56688;50.234;19.292;2022-08-25T03:08:40;12.90;;;4.20;;
69126;SDS011;56688;50.234;19.292;2022-08-25T03:11:07;8.30;;;4.50;;
69126;SDS011;56688;50.234;19.292;2022-08-25T03:13:35;16.80;;;4.60;;
69126;SDS011;56688;50.234;19.292;2022-08-25T03:16:04;10.50;;;4.80;;
69126;SDS011;56688;50.234;19.292;2022-08-25T03:18:38;10.50;;;4.30;;
69126;SDS011;56688;50.234;19.292;2022-08-25T03:21:08;12.70;;;5.40;;
69126;SDS011;56688;50.234;19.292;2022-08-25T03:23:37;11.70;;;5.00;;
69126;SDS011;56688;50.234;19.292;2022-08-25T03:26:05;9.40;;;5.00;;
69126;SDS011;56688;50.234;19.292;2022-08-25T03:28:48;11.70;;;5.10;;
69126;SDS011;56688;50.234;19.292;2022-08-25T03:31:15;12.50;;;4.70;;
69126;SDS011;56688;50.234;19.292;2022-08-25T03:33:42;10.20;;;4.60;;
69126;SDS011;56688;50.234;19.292;2022-08-25T03:36:09;12.20;;;4.80;;
69126;SDS011;56688;50.234;19.292;2022-08-25T03:38:38;14.10;;;4.70;;
69126;SDS011;56688;50.234;19.292;2022-08-25T03:41:14;11.30;;;4.90;;
69126;SDS011;56688;50.234;19.292;2022-08-25T03:43:43;6.50;;;4.50;;
69126;SDS011;56688;50.234;19.292;2022-08-25T03:46:15;9.40;;;4.60;;
69126;SDS011;56688;50.234;19.292;2022-08-25T03:48:45;14.10;;;5.00;;
69126;SDS011;56688;50.234;19.292;2022-08-25T03:51:17;15.40;;;5.10;;
69126;SDS011;56688;50.234;19.292;2022-08-25T03:53:45;10.50;;;4.90;;
69126;SDS011;56688;50.234;19.292;2022-08-25T03:56:12;14.00;;;4.70;;
69126;SDS011;56688;50.234;19.292;2022-08-25T03:58:39;18.10;;;5.30;;
69126;SDS011;56688;50.234;19.292;2022-08-25T04:01:05;12.70;;;5.20;;
69126;SDS011;56688;50.234;19.292;2022-08-25T04:03:32;17.60;;;5.10;;
69126;SDS011;56688;50.234;19.292;2022-08-25T04:06:02;12.10;;;5.90;;
69126;SDS011;56688;50.234;19.292;2022-08-25T04:08:30;14.40;;;5.50;;
69126;SDS011;56688;50.234;19.292;2022-08-25T04:10:57;14.10;;;5.30;;
69126;SDS011;56688;50.234;19.292;2022-08-25T04:13:24;10.30;;;4.80;;
69126;SDS011;56688;50.234;19.292;2022-08-25T04:15:51;15.20;;;5.10;;
69126;SDS011;56688;50.234;19.292;2022-08-25T04:18:18;12.00;;;4.50;;
69126;SDS011;56688;50.234;19.292;2022-08-25T04:20:45;17.20;;;5.10;;
69126;SDS011;56688;50.234;19.292;2022-08-25T04:23:12;10.50;;;4.90;;
69126;SDS011;56688;50.234;19.292;2022-08-25T04:25:40;12.30;;;5.10;;
69126;SDS011;56688;50.234;19.292;2022-08-25T04:28:08;14.60;;;5.40;;
69126;SDS011;56688;50.234;19.292;2022-08-25T04:30:35;13.40;;;5.30;;
69126;SDS011;56688;50.234;19.292;2022-08-25T04:33:08;14.80;;;5.80;;
69126;SDS011;56688;50.234;19.292;2022-08-25T04:35:35;19.00;;;5.40;;
69126;SDS011;56688;50.234;19.292;2022-08-25T04:38:03;17.40;;;5.30;;
69126;SDS011;56688;50.234;19.292;2022-08-25T04:40:30;17.40;;;5.40;;
69126;SDS011;56688;50.234;19.292;2022-08-25T04:42:58;14.90;;;5.60;;
69126;SDS011;56688;50.234;19.292;2022-08-25T04:45:24;18.50;;;6.00;;
69126;SDS011;56688;50.234;19.292;2022-08-25T04:47:51;15.60;;;6.10;;
69126;SDS011;56688;50.234;19.292;2022-08-25T04:50:20;16.00;;;6.00;;
69126;SDS011;56688;50.234;19.292;2022-08-25T04:52:47;26.50;;;6.30;;
69126;SDS011;56688;50.234;19.292;2022-08-25T04:55:14;21.40;;;6.70;;
69126;SDS011;56688;50.234;19.292;2022-08-25T04:57:41;15.30;;;6.60;;
69126;SDS011;56688;50.234;19.292;2022-08-25T05:00:09;16.00;;;5.70;;
69126;SDS011;56688;50.234;19.292;2022-08-25T05:02:36;20.10;;;6.40;;
69126;SDS011;56688;50.234;19.292;2022-08-25T05:05:03;17.60;;;5.70;;
69126;SDS011;56688;50.234;19.292;2022-08-25T05:07:30;12.00;;;5.80;;
69126;SDS011;56688;50.234;19.292;2022-08-25T05:09:57;11.40;;;5.50;;
69126;SDS011;56688;50.234;19.292;2022-08-25T05:12:24;15.60;;;6.00;;
69126;SDS011;56688;50.234;19.292;2022-08-25T05:14:54;16.70;;;5.50;;
69126;SDS011;56688;50.234;19.292;2022-08-25T05:17:21;15.60;;;5.10;;
69126;SDS011;56688;50.234;19.292;2022-08-25T05:19:48;18.70;;;5.50;;
69126;SDS011;56688;50.234;19.292;2022-08-25T05:22:15;17.20;;;5.90;;
69126;SDS011;56688;50.234;19.292;2022-08-25T05:24:42;15.60;;;6.20;;
69126;SDS011;56688;50.234;19.292;2022-08-25T05:27:09;12.30;;;5.70;;
69126;SDS011;56688;50.234;19.292;2022-08-25T05:29:35;14.90;;;6.20;;
69126;SDS011;56688;50.234;19.292;2022-08-25T05:32:02;16.60;;;6.00;;
69126;SDS011;56688;50.234;19.292;2022-08-25T05:34:30;16.20;;;6.20;;
69126;SDS011;56688;50.234;19.292;2022-08-25T05:36:56;18.70;;;6.10;;
69126;SDS011;56688;50.234;19.292;2022-08-25T05:39:25;16.10;;;6.40;;
69126;SDS011;56688;50.234;19.292;2022-08-25T05:41:52;17.60;;;6.00;;
69126;SDS011;56688;50.234;19.292;2022-08-25T05:44:19;20.70;;;5.80;;
69126;SDS011;56688;50.234;19.292;2022-08-25T05:46:47;17.10;;;5.70;;
69126;SDS011;56688;50.234;19.292;2022-08-25T05:49:14;17.40;;;5.20;;
69126;SDS011;56688;50.234;19.292;2022-08-25T05:51:41;18.50;;;5.40;;
69126;SDS011;56688;50.234;19.292;2022-08-25T05:54:07;19.80;;;6.40;;
69126;SDS011;56688;50.234;19.292;2022-08-25T05:56:34;23.40;;;6.20;;
69126;SDS011;56688;50.234;19.292;2022-08-25T05:59:01;19.10;;;6.20;;
69126;SDS011;56688;50.234;19.292;2022-08-25T06:01:34;19.50;;;5.70;;
69126;SDS011;56688;50.234;19.292;2022-08-25T06:04:16;16.40;;;5.40;;
69126;SDS011;56688;50.234;19.292;2022-08-25T06:06:44;17.20;;;5.00;;
69126;SDS011;56688;50.234;19.292;2022-08-25T06:09:12;17.60;;;5.70;;
69126;SDS011;56688;50.234;19.292;2022-08-25T06:11:39;21.20;;;5.50;;
69126;SDS011;56688;50.234;19.292;2022-08-25T06:14:08;17.20;;;5.40;;
69126;SDS011;56688;50.234;19.292;2022-08-25T06:16:36;16.60;;;5.40;;
69126;SDS011;56688;50.234;19.292;2022-08-25T06:19:05;20.00;;;5.20;;
69126;SDS011;56688;50.234;19.292;2022-08-25T06:21:33;24.50;;;5.20;;
69126;SDS011;56688;50.234;19.292;2022-08-25T06:24:00;20.00;;;5.30;;
69126;SDS011;56688;50.234;19.292;2022-08-25T06:26:27;16.40;;;5.20;;
69126;SDS011;56688;50.234;19.292;2022-08-25T06:28:54;16.80;;;5.20;;
69126;SDS011;56688;50.234;19.292;2022-08-25T06:31:21;21.40;;;5.10;;
69126;SDS011;56688;50.234;19.292;2022-08-25T06:33:49;19.10;;;5.50;;
69126;SDS011;56688;50.234;19.292;2022-08-25T06:36:17;23.10;;;5.80;;
69126;SDS011;56688;50.234;19.292;2022-08-25T06:38:45;20.50;;;5.30;;
69126;SDS011;56688;50.234;19.292;2022-08-25T06:41:13;18.10;;;4.80;;
69126;SDS011;56688;50.234;19.292;2022-08-25T06:43:40;23.60;;;5.60;;
69126;SDS011;56688;50.234;19.292;2022-08-25T06:46:17;19.70;;;5.00;;
69126;SDS011;56688;50.234;19.292;2022-08-25T06:48:47;20.00;;;5.10;;
69126;SDS011;56688;50.234;19.292;2022-08-25T06:51:16;16.40;;;5.10;;
69126;SDS011;56688;50.234;19.292;2022-08-25T06:53:45;20.50;;;5.30;;
69126;SDS011;56688;50.234;19.292;2022-08-25T06:56:15;17.70;;;5.20;;
69126;SDS011;56688;50.234;19.292;2022-08-25T06:58:44;19.30;;;4.90;;
69126;SDS011;56688;50.234;19.292;2022-08-25T07:01:15;18.10;;;4.80;;
69126;SDS011;56688;50.234;19.292;2022-08-25T07:03:46;20.70;;;5.10;;
69126;SDS011;56688;50.234;19.292;2022-08-25T07:06:18;19.60;;;4.80;;
69126;SDS011;56688;50.234;19.292;2022-08-25T07:08:46;22.00;;;4.90;;
69126;SDS011;56688;50.234;19.292;2022-08-25T07:11:13;20.00;;;4.60;;
69126;SDS011;56688;50.234;19.292;2022-08-25T07:13:42;20.50;;;4.40;;
69126;SDS011;56688;50.234;19.292;2022-08-25T07:16:09;21.40;;;4.90;;
69126;SDS011;56688;50.234;19.292;2022-08-25T07:18:37;21.90;;;5.00;;
69126;SDS011;56688;50.234;19.292;2022-08-25T07:21:04;23.70;;;4.90;;
69126;SDS011;56688;50.234;19.292;2022-08-25T07:23:34;20.50;;;5.00;;
69126;SDS011;56688;50.234;19.292;2022-08-25T07:26:10;25.20;;;5.20;;
69126;SDS011;56688;50.234;19.292;2022-08-25T07:29:00;25.00;;;4.90;;
69126;SDS011;56688;50.234;19.292;2022-08-25T07:31:29;27.50;;;5.40;;
69126;SDS011;56688;50.234;19.292;2022-08-25T07:33:57;23.60;;;5.00;;
69126;SDS011;56688;50.234;19.292;2022-08-25T07:36:39;24.40;;;4.80;;
69126;SDS011;56688;50.234;19.292;2022-08-25T07:39:06;34.20;;;5.50;;
69126;SDS011;56688;50.234;19.292;2022-08-25T07:41:37;26.10;;;4.90;;
69126;SDS011;56688;50.234;19.292;2022-08-25T07:44:06;21.00;;;4.80;;
69126;SDS011;56688;50.234;19.292;2022-08-25T07:46:34;31.80;;;5.10;;
69126;SDS011;56688;50.234;19.292;2022-08-25T07:49:03;27.30;;;5.10;;
69126;SDS011;56688;50.234;19.292;2022-08-25T07:51:43;26.60;;;5.10;;
69126;SDS011;56688;50.234;19.292;2022-08-25T07:54:31;26.60;;;5.00;;
69126;SDS011;56688;50.234;19.292;2022-08-25T07:57:01;21.30;;;4.50;;
69126;SDS011;56688;50.234;19.292;2022-08-25T07:59:29;31.00;;;5.30;;
69126;SDS011;56688;50.234;19.292;2022-08-25T08:02:05;23.10;;;4.60;;
69126;SDS011;56688;50.234;19.292;2022-08-25T08:04:34;26.60;;;4.40;;
69126;SDS011;56688;50.234;19.292;2022-08-25T08:07:02;28.10;;;4.90;;
69126;SDS011;56688;50.234;19.292;2022-08-25T08:09:37;26.70;;;5.00;;
69126;SDS011;56688;50.234;19.292;2022-08-25T08:12:04;34.30;;;5.30;;
69126;SDS011;56688;50.234;19.292;2022-08-25T08:14:32;36.00;;;5.30;;
69126;SDS011;56688;50.234;19.292;2022-08-25T08:17:03;31.30;;;5.50;;
69126;SDS011;56688;50.234;19.292;2022-08-25T08:19:32;30.80;;;5.20;;
69126;SDS011;56688;50.234;19.292;2022-08-25T08:22:00;24.60;;;5.00;;
69126;SDS011;56688;50.234;19.292;2022-08-25T08:24:29;24.10;;;4.60;;
69126;SDS011;56688;50.234;19.292;2022-08-25T08:27:17;26.20;;;4.70;;
69126;SDS011;56688;50.234;19.292;2022-08-25T08:29:44;31.40;;;5.70;;
69126;SDS011;56688;50.234;19.292;2022-08-25T08:32:11;27.60;;;4.80;;
69126;SDS011;56688;50.234;19.292;2022-08-25T08:34:39;30.00;;;5.00;;
69126;SDS011;56688;50.234;19.292;2022-08-25T08:37:09;30.90;;;5.10;;
69126;SDS011;56688;50.234;19.292;2022-08-25T08:39:36;29.00;;;5.30;;
69126;SDS011;56688;50.234;19.292;2022-08-25T08:45:05;29.60;;;5.40;;
69126;SDS011;56688;50.234;19.292;2022-08-25T08:50:23;31.50;;;5.40;;
69126;SDS011;56688;50.234;19.292;2022-08-25T08:53:06;34.70;;;5.10;;
69126;SDS011;56688;50.234;19.292;2022-08-25T08:55:39;28.70;;;5.20;;
69126;SDS011;56688;50.234;19.292;2022-08-25T08:58:12;30.00;;;5.60;;
69126;SDS011;56688;50.234;19.292;2022-08-25T09:00:53;25.00;;;4.90;;
69126;SDS011;56688;50.234;19.292;2022-08-25T09:05:56;29.40;;;6.20;;
69126;SDS011;56688;50.234;19.292;2022-08-25T09:08:28;32.20;;;5.30;;
69126;SDS011;56688;50.234;19.292;2022-08-25T09:10:58;34.20;;;5.60;;
69126;SDS011;56688;50.234;19.292;2022-08-25T09:22:10;29.10;;;5.20;;
69126;SDS011;56688;50.234;19.292;2022-08-25T09:27:37;28.20;;;5.60;;
69126;SDS011;56688;50.234;19.292;2022-08-25T09:30:13;29.90;;;5.20;;
69126;SDS011;56688;50.234;19.292;2022-08-25T09:32:44;27.10;;;4.80;;
69126;SDS011;56688;50.234;19.292;2022-08-25T09:35:20;27.40;;;5.40;;
69126;SDS011;56688;50.234;19.292;2022-08-25T09:38:00;30.70;;;5.60;;
69126;SDS011;56688;50.234;19.292;2022-08-25T09:40:32;26.70;;;4.90;;
69126;SDS011;56688;50.234;19.292;2022-08-25T09:43:01;33.40;;;5.00;;
69126;SDS011;56688;50.234;19.292;2022-08-25T09:48:12;33.20;;;5.50;;
69126;SDS011;56688;50.234;19.292;2022-08-25T09:50:48;34.30;;;5.50;;
69126;SDS011;56688;50.234;19.292;2022-08-25T09:53:17;34.80;;;5.40;;
69126;SDS011;56688;50.234;19.292;2022-08-25T09:55:51;33.60;;;5.30;;
69126;SDS011;56688;50.234;19.292;2022-08-25T09:58:26;33.10;;;5.70;;
69126;SDS011;56688;50.234;19.292;2022-08-25T10:03:32;36.70;;;5.60;;
69126;SDS011;56688;50.234;19.292;2022-08-25T10:11:20;34.10;;;5.40;;
69126;SDS011;56688;50.234;19.292;2022-08-25T10:14:00;29.00;;;5.70;;
69126;SDS011;56688;50.234;19.292;2022-08-25T10:16:31;24.20;;;5.30;;
69126;SDS011;56688;50.234;19.292;2022-08-25T10:21:34;28.20;;;5.10;;
69126;SDS011;56688;50.234;19.292;2022-08-25T10:24:04;30.30;;;5.30;;
69126;SDS011;56688;50.234;19.292;2022-08-25T10:26:40;28.40;;;5.00;;
69126;SDS011;56688;50.234;19.292;2022-08-25T10:34:47;21.30;;;4.90;;
69126;SDS011;56688;50.234;19.292;2022-08-25T10:42:58;28.60;;;5.30;;
69126;SDS011;56688;50.234;19.292;2022-08-25T10:45:29;21.30;;;4.80;;
69126;SDS011;56688;50.234;19.292;2022-08-25T10:50:43;34.40;;;4.90;;
69126;SDS011;56688;50.234;19.292;2022-08-25T11:04:14;25.40;;;5.00;;
69126;SDS011;56688;50.234;19.292;2022-08-25T11:06:59;27.30;;;4.70;;
69126;SDS011;56688;50.234;19.292;2022-08-25T11:09:33;28.60;;;5.10;;
69126;SDS011;56688;50.234;19.292;2022-08-25T11:12:08;20.60;;;5.10;;
69126;SDS011;56688;50.234;19.292;2022-08-25T11:14:51;20.60;;;5.20;;
69126;SDS011;56688;50.234;19.292;2022-08-25T11:19:52;27.80;;;4.30;;
69126;SDS011;56688;50.234;19.292;2022-08-25T11:22:26;30.00;;;5.30;;
69126;SDS011;56688;50.234;19.292;2022-08-25T11:30:40;21.60;;;5.00;;
69126;SDS011;56688;50.234;19.292;2022-08-25T11:33:10;25.30;;;5.00;;
69126;SDS011;56688;50.234;19.292;2022-08-25T11:35:42;23.80;;;4.70;;
69126;SDS011;56688;50.234;19.292;2022-08-25T11:57:50;30.60;;;4.40;;
69126;SDS011;56688;50.234;19.292;2022-08-25T12:14:13;20.00;;;4.40;;
69126;SDS011;56688;50.234;19.292;2022-08-25T12:30:00;23.60;;;4.50;;
69126;SDS011;56688;50.234;19.292;2022-08-25T12:37:59;22.20;;;4.60;;
69126;SDS011;56688;50.234;19.292;2022-08-25T12:45:51;29.60;;;4.80;;
69126;SDS011;56688;50.234;19.292;2022-08-25T12:51:04;24.50;;;4.30;;
69126;SDS011;56688;50.234;19.292;2022-08-25T12:53:33;32.30;;;4.90;;
69126;SDS011;56688;50.234;19.292;2022-08-25T12:56:04;24.70;;;4.50;;
69126;SDS011;56688;50.234;19.292;2022-08-25T12:58:34;24.40;;;4.40;;
69126;SDS011;56688;50.234;19.292;2022-08-25T13:07:23;25.50;;;4.50;;
69126;SDS011;56688;50.234;19.292;2022-08-25T13:10:02;28.70;;;5.10;;
69126;SDS011;56688;50.234;19.292;2022-08-25T13:12:39;28.30;;;4.40;;
69126;SDS011;56688;50.234;19.292;2022-08-25T13:15:14;23.50;;;4.00;;
69126;SDS011;56688;50.234;19.292;2022-08-25T13:17:52;25.80;;;3.90;;
69126;SDS011;56688;50.234;19.292;2022-08-25T13:20:23;22.80;;;4.20;;
69126;SDS011;56688;50.234;19.292;2022-08-25T13:22:55;27.00;;;4.10;;
69126;SDS011;56688;50.234;19.292;2022-08-25T13:25:27;27.90;;;3.90;;
69126;SDS011;56688;50.234;19.292;2022-08-25T13:27:59;25.30;;;4.50;;
69126;SDS011;56688;50.234;19.292;2022-08-25T13:30:30;28.50;;;3.90;;
69126;SDS011;56688;50.234;19.292;2022-08-25T13:33:14;21.60;;;4.00;;
69126;SDS011;56688;50.234;19.292;2022-08-25T13:35:46;27.90;;;4.10;;
69126;SDS011;56688;50.234;19.292;2022-08-25T13:38:17;20.80;;;4.00;;
69126;SDS011;56688;50.234;19.292;2022-08-25T13:40:45;23.00;;;3.90;;
69126;SDS011;56688;50.234;19.292;2022-08-25T13:43:12;24.40;;;4.00;;
69126;SDS011;56688;50.234;19.292;2022-08-25T13:45:42;25.70;;;4.10;;
69126;SDS011;56688;50.234;19.292;2022-08-25T13:48:13;21.80;;;4.00;;
69126;SDS011;56688;50.234;19.292;2022-08-25T13:51:04;26.30;;;4.10;;
69126;SDS011;56688;50.234;19.292;2022-08-25T13:53:36;26.60;;;4.00;;
69126;SDS011;56688;50.234;19.292;2022-08-25T13:56:04;23.00;;;3.90;;
69126;SDS011;56688;50.234;19.292;2022-08-25T13:58:33;28.10;;;4.40;;
69126;SDS011;56688;50.234;19.292;2022-08-25T14:01:14;23.60;;;4.10;;
69126;SDS011;56688;50.234;19.292;2022-08-25T14:06:47;26.50;;;4.00;;
69126;SDS011;56688;50.234;19.292;2022-08-25T14:09:16;26.00;;;4.30;;
69126;SDS011;56688;50.234;19.292;2022-08-25T14:11:54;24.50;;;4.70;;
69126;SDS011;56688;50.234;19.292;2022-08-25T14:16:56;16.90;;;3.80;;
69126;SDS011;56688;50.234;19.292;2022-08-25T14:19:44;20.50;;;3.80;;
69126;SDS011;56688;50.234;19.292;2022-08-25T14:22:13;20.80;;;3.90;;
69126;SDS011;56688;50.234;19.292;2022-08-25T14:24:40;21.70;;;3.70;;
69126;SDS011;56688;50.234;19.292;2022-08-25T14:27:07;24.20;;;4.20;;
69126;SDS011;56688;50.234;19.292;2022-08-25T14:29:37;27.40;;;4.20;;
69126;SDS011;56688;50.234;19.292;2022-08-25T14:32:07;25.20;;;4.00;;
69126;SDS011;56688;50.234;19.292;2022-08-25T14:34:36;24.60;;;4.10;;
69126;SDS011;56688;50.234;19.292;2022-08-25T14:37:08;28.70;;;4.50;;
69126;SDS011;56688;50.234;19.292;2022-08-25T14:39:41;21.30;;;4.20;;
69126;SDS011;56688;50.234;19.292;2022-08-25T14:42:09;19.30;;;4.20;;
69126;SDS011;56688;50.234;19.292;2022-08-25T14:44:37;26.40;;;4.10;;
69126;SDS011;56688;50.234;19.292;2022-08-25T14:47:05;22.80;;;4.10;;
69126;SDS011;56688;50.234;19.292;2022-08-25T14:49:34;30.80;;;4.20;;
69126;SDS011;56688;50.234;19.292;2022-08-25T14:52:09;28.20;;;4.70;;
69126;SDS011;56688;50.234;19.292;2022-08-25T14:54:43;28.00;;;4.10;;
69126;SDS011;56688;50.234;19.292;2022-08-25T14:57:11;21.70;;;4.30;;
69126;SDS011;56688;50.234;19.292;2022-08-25T14:59:39;26.70;;;4.10;;
69126;SDS011;56688;50.234;19.292;2022-08-25T15:02:09;24.40;;;4.00;;
69126;SDS011;56688;50.234;19.292;2022-08-25T15:04:40;30.40;;;4.60;;
69126;SDS011;56688;50.234;19.292;2022-08-25T15:07:17;23.10;;;4.10;;
69126;SDS011;56688;50.234;19.292;2022-08-25T15:10:00;25.60;;;4.20;;
69126;SDS011;56688;50.234;19.292;2022-08-25T15:12:28;22.40;;;4.50;;
69126;SDS011;56688;50.234;19.292;2022-08-25T15:15:13;22.60;;;4.40;;
69126;SDS011;56688;50.234;19.292;2022-08-25T15:17:40;18.90;;;4.30;;
69126;SDS011;56688;50.234;19.292;2022-08-25T15:20:10;25.00;;;4.40;;
69126;SDS011;56688;50.234;19.292;2022-08-25T15:22:37;20.30;;;3.80;;
69126;SDS011;56688;50.234;19.292;2022-08-25T15:25:07;23.90;;;4.20;;
69126;SDS011;56688;50.234;19.292;2022-08-25T15:27:34;21.10;;;4.40;;
69126;SDS011;56688;50.234;19.292;2022-08-25T15:30:02;30.60;;;4.90;;
69126;SDS011;56688;50.234;19.292;2022-08-25T15:32:30;29.10;;;5.00;;
69126;SDS011;56688;50.234;19.292;2022-08-25T15:34:57;29.80;;;5.00;;
69126;SDS011;56688;50.234;19.292;2022-08-25T15:37:25;26.90;;;4.30;;
69126;SDS011;56688;50.234;19.292;2022-08-25T15:39:52;27.90;;;4.40;;
69126;SDS011;56688;50.234;19.292;2022-08-25T15:42:19;21.60;;;3.90;;
69126;SDS011;56688;50.234;19.292;2022-08-25T15:44:47;30.50;;;4.80;;
69126;SDS011;56688;50.234;19.292;2022-08-25T15:47:19;23.70;;;4.20;;
69126;SDS011;56688;50.234;19.292;2022-08-25T15:49:47;28.70;;;4.60;;
69126;SDS011;56688;50.234;19.292;2022-08-25T15:52:14;25.60;;;4.50;;
69126;SDS011;56688;50.234;19.292;2022-08-25T15:54:41;23.60;;;4.00;;
69126;SDS011;56688;50.234;19.292;2022-08-25T15:57:10;29.10;;;4.40;;
69126;SDS011;56688;50.234;19.292;2022-08-25T15:59:50;32.40;;;5.00;;
69126;SDS011;56688;50.234;19.292;2022-08-25T16:02:18;26.20;;;5.20;;
69126;SDS011;56688;50.234;19.292;2022-08-25T16:04:46;31.90;;;5.30;;
69126;SDS011;56688;50.234;19.292;2022-08-25T16:07:13;26.00;;;4.90;;
69126;SDS011;56688;50.234;19.292;2022-08-25T16:09:40;22.10;;;4.40;;
69126;SDS011;56688;50.234;19.292;2022-08-25T16:12:07;27.70;;;5.10;;
69126;SDS011;56688;50.234;19.292;2022-08-25T16:14:35;30.30;;;5.50;;
69126;SDS011;56688;50.234;19.292;2022-08-25T16:17:03;36.50;;;4.60;;
69126;SDS011;56688;50.234;19.292;2022-08-25T16:19:31;26.70;;;5.00;;
69126;SDS011;56688;50.234;19.292;2022-08-25T16:22:03;33.40;;;4.70;;
69126;SDS011;56688;50.234;19.292;2022-08-25T16:24:38;21.20;;;4.70;;
69126;SDS011;56688;50.234;19.292;2022-08-25T16:27:07;27.90;;;5.00;;
69126;SDS011;56688;50.234;19.292;2022-08-25T16:29:37;24.50;;;5.10;;
69126;SDS011;56688;50.234;19.292;2022-08-25T16:32:06;29.70;;;5.00;;
69126;SDS011;56688;50.234;19.292;2022-08-25T16:34:34;27.90;;;4.50;;
69126;SDS011;56688;50.234;19.292;2022-08-25T16:37:01;31.60;;;4.50;;
69126;SDS011;56688;50.234;19.292;2022-08-25T16:39:29;23.10;;;4.50;;
69126;SDS011;56688;50.234;19.292;2022-08-25T16:41:57;25.30;;;4.70;;
69126;SDS011;56688;50.234;19.292;2022-08-25T16:44:24;26.80;;;4.70;;
69126;SDS011;56688;50.234;19.292;2022-08-25T16:46:51;37.10;;;5.40;;
69126;SDS011;56688;50.234;19.292;2022-08-25T16:49:20;25.70;;;5.10;;
69126;SDS011;56688;50.234;19.292;2022-08-25T16:51:50;33.70;;;5.10;;
69126;SDS011;56688;50.234;19.292;2022-08-25T16:54:23;37.60;;;5.30;;
69126;SDS011;56688;50.234;19.292;2022-08-25T16:57:07;31.70;;;5.30;;
69126;SDS011;56688;50.234;19.292;2022-08-25T16:59:34;22.60;;;4.90;;
69126;SDS011;56688;50.234;19.292;2022-08-25T17:02:01;27.40;;;6.30;;
69126;SDS011;56688;50.234;19.292;2022-08-25T17:04:30;32.40;;;7.10;;
69126;SDS011;56688;50.234;19.292;2022-08-25T17:06:58;25.90;;;6.50;;